Terminal Aerodrome Forecast
Issued by NWS Hastings, NE

Home | Current Version | Previous Version | Text Only | Print | Product List | Glossary On
Versions: 1 2 3 4 5 6 7 8 9 10 11 12 13 14 15 16
623
FTUS45 KGID 211720
TAFEAR
TAF
KEAR 211720Z 2118/2218 20009KT P6SM SCT250
     FM212300 21012KT P6SM VCTS SCT080CB
     FM220400 VRB06KT P6SM BKN130
     FM221500 02010KT P6SM FEW250=

USA.gov is the U.S. government's official web portal to all federal, state and local government web resources and services.